createdAt,value
2023-02-23T00:00:18.240Z,24.91
2023-02-23T00:01:18.599Z,24.92
2023-02-23T00:02:18.257Z,24.91
2023-02-23T00:03:18.278Z,24.90
2023-02-23T00:04:18.189Z,24.90
2023-02-23T00:55:28.988Z,25.91
2023-02-23T00:56:29.825Z,25.25
2023-02-23T00:57:29.806Z,25.16
2023-02-23T00:58:29.796Z,25.07
2023-02-23T00:59:29.830Z,25.04
2023-02-23T01:00:29.780Z,24.99
2023-02-23T01:01:29.801Z,24.96
2023-02-23T01:02:29.799Z,24.96
2023-02-23T01:03:29.751Z,24.94
2023-02-23T01:04:29.736Z,24.92
2023-02-23T01:05:29.730Z,24.92
2023-02-23T01:06:29.721Z,24.92
2023-02-23T01:07:29.712Z,24.91
2023-02-23T01:08:29.696Z,24.89
2023-02-23T01:09:29.694Z,24.90
2023-02-23T01:10:29.686Z,24.88
2023-02-23T01:11:29.701Z,24.89
2023-02-23T01:12:29.670Z,24.89
2023-02-23T01:13:29.657Z,24.91
2023-02-23T01:14:29.688Z,24.87
2023-02-23T01:15:29.663Z,24.89
2023-02-23T01:16:29.638Z,24.87
2023-02-23T01:17:29.620Z,24.89
2023-02-23T01:18:29.607Z,24.89
2023-02-23T01:19:29.602Z,24.89
2023-02-23T01:20:29.587Z,24.88
2023-02-23T01:21:29.586Z,24.87
2023-02-23T01:22:29.577Z,24.87
2023-02-23T01:23:29.572Z,24.89
2023-02-23T01:24:29.557Z,24.88
2023-02-23T01:25:29.552Z,24.88
2023-02-23T01:26:29.542Z,24.88
2023-02-23T01:27:29.562Z,24.87
2023-02-23T01:28:29.532Z,24.88
2023-02-23T01:29:29.516Z,24.89
2023-02-23T01:30:29.552Z,24.88
2023-02-23T01:31:29.627Z,24.87
2023-02-23T01:32:29.619Z,24.88
2023-02-23T01:33:29.484Z,24.88
2023-02-23T01:34:29.472Z,24.86
2023-02-23T01:35:29.465Z,24.88
2023-02-23T01:36:29.453Z,24.85
2023-02-23T01:37:29.451Z,24.87
2023-02-23T01:38:29.440Z,24.87
2023-02-23T01:39:29.434Z,24.86
2023-02-23T01:40:29.431Z,24.86
2023-02-23T01:41:29.424Z,24.86
2023-02-23T01:42:29.410Z,24.86
2023-02-23T01:43:29.423Z,24.87
2023-02-23T01:44:29.392Z,24.86
2023-02-23T01:45:29.385Z,24.86
2023-02-23T01:46:29.443Z,24.86
2023-02-23T01:47:29.362Z,24.86
2023-02-23T01:48:30.446Z,24.86
2023-02-23T01:49:29.392Z,24.87
2023-02-23T01:50:29.342Z,24.87
2023-02-23T01:51:29.328Z,24.87
2023-02-23T01:52:29.317Z,24.87
2023-02-23T01:53:29.330Z,24.85
2023-02-23T01:54:29.331Z,24.86
2023-02-23T01:55:29.298Z,24.84
2023-02-23T01:56:29.290Z,24.85
2023-02-23T01:57:29.277Z,24.84
2023-02-23T01:58:29.265Z,24.86
2023-02-23T01:59:29.286Z,24.86
2023-02-23T02:00:29.249Z,24.83
2023-02-23T02:01:29.280Z,24.85
2023-02-23T02:02:29.230Z,24.85
2023-02-23T02:03:29.233Z,24.85
2023-02-23T02:04:29.218Z,24.86
2023-02-23T02:05:29.210Z,24.84
2023-02-23T02:06:29.213Z,24.85
2023-02-23T02:07:29.187Z,24.84
2023-02-23T02:08:29.178Z,24.86
2023-02-23T02:09:29.176Z,24.85
2023-02-23T02:10:29.162Z,24.85
2023-02-23T02:11:29.158Z,24.84
2023-02-23T02:12:29.160Z,24.84
2023-02-23T02:13:29.138Z,24.84
2023-02-23T02:14:29.139Z,24.85
2023-02-23T02:15:29.142Z,24.83
2023-02-23T02:16:29.114Z,24.83
2023-02-23T02:17:29.116Z,24.84
2023-02-23T02:18:29.095Z,24.83
2023-02-23T02:19:29.174Z,24.83
2023-02-23T02:20:29.076Z,24.85
2023-02-23T02:21:29.063Z,24.84
2023-02-23T02:22:29.062Z,24.83
2023-02-23T02:23:29.053Z,24.82
2023-02-23T02:24:31.141Z,24.84
2023-02-23T02:25:29.036Z,24.82
2023-02-23T02:26:29.026Z,24.83
2023-02-23T02:27:29.019Z,24.82
2023-02-23T02:28:29.006Z,24.82
2023-02-23T02:29:29.138Z,24.83
2023-02-23T02:30:29.040Z,24.83
2023-02-23T02:31:29.050Z,24.84
2023-02-23T02:32:29.000Z,24.82
2023-02-23T02:33:28.965Z,24.83
2023-02-23T02:34:28.963Z,24.83
2023-02-23T02:35:28.945Z,24.84
2023-02-23T02:36:28.932Z,24.82
2023-02-23T02:37:28.927Z,24.81
2023-02-23T02:38:29.301Z,24.83
2023-02-23T02:39:28.915Z,24.84
2023-02-23T02:40:28.897Z,24.82
2023-02-23T02:41:28.891Z,24.82
2023-02-23T02:42:28.877Z,24.83
2023-02-23T02:43:28.867Z,24.84
2023-02-23T02:44:28.871Z,24.82
2023-02-23T02:45:28.851Z,24.81
2023-02-23T02:46:28.925Z,24.83
2023-02-23T02:47:28.859Z,24.82
2023-02-23T02:48:28.828Z,24.81
2023-02-23T02:49:28.814Z,24.81
2023-02-23T02:50:28.810Z,24.83
2023-02-23T02:51:28.837Z,24.83
2023-02-23T02:52:28.799Z,24.80
2023-02-23T02:53:28.810Z,24.79
2023-02-23T02:54:28.782Z,24.81
2023-02-23T02:55:28.763Z,24.79
2023-02-23T02:56:28.755Z,24.81
2023-02-23T02:57:28.743Z,24.81
2023-02-23T02:58:28.728Z,24.80
2023-02-23T02:59:28.723Z,24.80
2023-02-23T03:00:28.745Z,24.78
2023-02-23T03:01:28.762Z,24.79
2023-02-23T03:02:28.695Z,24.79
2023-02-23T03:03:28.714Z,24.80
2023-02-23T03:04:28.677Z,24.80
2023-02-23T03:05:28.713Z,24.81
2023-02-23T03:06:28.659Z,24.81
2023-02-23T03:07:28.685Z,24.80
2023-02-23T03:08:28.643Z,24.79
2023-02-23T03:09:28.646Z,24.79
2023-02-23T03:10:28.625Z,24.80
2023-02-23T03:11:28.631Z,24.80
2023-02-23T03:12:28.648Z,24.79
2023-02-23T03:13:28.605Z,24.79
2023-02-23T03:14:28.585Z,24.80
2023-02-23T03:15:28.587Z,24.78
2023-02-23T03:16:28.571Z,24.79
2023-02-23T03:17:28.593Z,24.79
2023-02-23T03:18:28.563Z,24.79
2023-02-23T03:19:28.605Z,24.77
2023-02-23T03:20:28.539Z,24.78
2023-02-23T03:21:28.527Z,24.78
2023-02-23T03:22:28.550Z,24.79
2023-02-23T03:23:28.520Z,24.80
2023-02-23T03:24:28.505Z,24.79
2023-02-23T03:25:28.504Z,24.79
2023-02-23T03:26:28.484Z,24.79
2023-02-23T03:27:28.478Z,24.80
2023-02-23T03:28:28.465Z,24.79
2023-02-23T03:29:28.458Z,24.79
2023-02-23T03:30:28.484Z,24.79
2023-02-23T03:31:28.479Z,24.79
2023-02-23T03:32:28.640Z,24.79
2023-02-23T03:33:28.435Z,24.80
2023-02-23T03:34:28.427Z,24.80
2023-02-23T03:35:28.452Z,24.78
2023-02-23T03:36:28.396Z,24.80
2023-02-23T03:37:28.394Z,24.79
2023-02-23T03:38:28.390Z,24.80
2023-02-23T03:39:28.382Z,24.79
2023-02-23T03:40:28.372Z,24.79
2023-02-23T03:41:28.354Z,24.80
2023-02-23T03:42:28.341Z,24.80
2023-02-23T03:43:28.333Z,24.80
2023-02-23T03:44:28.324Z,24.79
2023-02-23T03:45:28.356Z,24.80
2023-02-23T03:46:28.312Z,24.79
2023-02-23T03:47:28.310Z,24.79
2023-02-23T03:48:28.292Z,24.80
2023-02-23T03:49:28.285Z,24.80
2023-02-23T03:50:28.279Z,24.78
2023-02-23T03:51:28.295Z,24.78
2023-02-23T03:52:28.264Z,24.77
2023-02-23T03:53:28.252Z,24.78
2023-02-23T03:54:28.257Z,24.78
2023-02-23T03:55:28.243Z,24.76
2023-02-23T03:56:28.232Z,24.77
2023-02-23T03:57:28.210Z,24.76
2023-02-23T03:58:28.207Z,24.76
2023-02-23T03:59:28.199Z,24.76
2023-02-23T04:00:28.189Z,24.78
2023-02-23T04:01:28.186Z,24.75
2023-02-23T04:02:28.172Z,24.76
2023-02-23T04:03:28.210Z,24.76
2023-02-23T04:04:28.154Z,24.77
2023-02-23T04:05:28.139Z,24.76
2023-02-23T04:06:28.130Z,24.76
2023-02-23T04:07:28.156Z,24.76
2023-02-23T04:08:28.108Z,24.77
2023-02-23T04:09:28.101Z,24.76
2023-02-23T04:10:28.100Z,24.76
2023-02-23T04:11:28.077Z,24.77
2023-02-23T04:12:28.066Z,24.77
2023-02-23T04:13:28.061Z,24.76
2023-02-23T04:14:28.050Z,24.77
2023-02-23T04:15:28.051Z,24.76
2023-02-23T04:16:28.100Z,24.74
2023-02-23T04:17:28.024Z,24.75
2023-02-23T04:18:28.022Z,24.74
2023-02-23T04:19:28.001Z,24.77
2023-02-23T04:20:27.998Z,24.76
2023-02-23T04:21:27.987Z,24.76
2023-02-23T04:22:27.977Z,24.76
2023-02-23T04:23:27.991Z,24.77
2023-02-23T04:24:27.964Z,24.76
2023-02-23T04:25:27.949Z,24.75
2023-02-23T04:26:27.944Z,24.75
2023-02-23T04:27:27.934Z,24.75
2023-02-23T04:28:27.938Z,24.75
2023-02-23T04:29:27.934Z,24.75
2023-02-23T04:30:27.962Z,24.75
2023-02-23T04:31:28.068Z,24.75
2023-02-23T04:32:28.008Z,24.74
2023-02-23T04:33:27.900Z,24.74
2023-02-23T04:34:27.888Z,24.73
2023-02-23T04:35:27.874Z,24.74
2023-02-23T04:36:27.861Z,24.75
2023-02-23T04:37:27.856Z,24.73
2023-02-23T04:38:27.846Z,24.74
2023-02-23T04:39:27.888Z,24.73
2023-02-23T04:40:27.827Z,24.75
2023-02-23T04:41:27.824Z,24.74
2023-02-23T04:42:27.826Z,24.74
2023-02-23T04:43:27.804Z,24.74
2023-02-23T04:44:27.813Z,24.75
2023-02-23T04:45:27.793Z,24.75
2023-02-23T04:46:27.800Z,24.74
2023-02-23T04:47:27.772Z,24.75
2023-02-23T04:48:27.755Z,24.74
2023-02-23T04:49:27.750Z,24.74
2023-02-23T04:50:27.742Z,24.71
2023-02-23T04:51:27.749Z,24.71
2023-02-23T04:52:27.746Z,24.72
2023-02-23T04:53:27.713Z,24.73
2023-02-23T04:54:27.704Z,24.75
2023-02-23T04:55:27.729Z,24.74
2023-02-23T04:56:27.696Z,24.75
2023-02-23T04:57:27.683Z,24.74
2023-02-23T04:58:27.669Z,24.72
2023-02-23T04:59:27.664Z,24.72
2023-02-23T05:00:27.658Z,24.73
2023-02-23T05:01:27.873Z,24.73
2023-02-23T05:02:27.640Z,24.74
2023-02-23T05:03:27.627Z,24.74
2023-02-23T05:04:27.734Z,24.72
2023-02-23T05:05:27.614Z,24.72
2023-02-23T05:06:27.677Z,24.74
2023-02-23T05:07:27.605Z,24.73
2023-02-23T05:08:27.590Z,24.74
2023-02-23T05:09:27.590Z,24.74
2023-02-23T05:10:27.579Z,24.73
2023-02-23T05:11:27.678Z,24.73
2023-02-23T05:12:27.554Z,24.75
2023-02-23T05:13:27.549Z,24.73
2023-02-23T05:14:27.539Z,24.75
2023-02-23T05:15:27.537Z,24.74
2023-02-23T05:16:27.533Z,24.74
2023-02-23T05:17:27.509Z,24.73
2023-02-23T05:18:27.531Z,24.72
2023-02-23T05:19:27.534Z,24.73
2023-02-23T05:20:27.483Z,24.73
2023-02-23T05:21:27.480Z,24.71
2023-02-23T05:22:27.469Z,24.72
2023-02-23T05:23:27.455Z,24.69
2023-02-23T05:24:27.454Z,24.71
2023-02-23T05:25:27.443Z,24.71
2023-02-23T05:26:27.434Z,24.70
2023-02-23T05:27:27.510Z,24.71
2023-02-23T05:28:27.419Z,24.72
2023-02-23T05:29:27.414Z,24.69
2023-02-23T05:30:27.440Z,24.72
2023-02-23T05:31:27.666Z,24.70
2023-02-23T05:32:27.431Z,24.71
2023-02-23T05:33:27.381Z,24.70
2023-02-23T05:34:27.363Z,24.71
2023-02-23T05:35:27.363Z,24.72
2023-02-23T05:36:27.349Z,24.71
2023-02-23T05:37:27.334Z,24.71
2023-02-23T05:38:27.349Z,24.73
2023-02-23T05:39:27.316Z,24.71
2023-02-23T05:40:27.306Z,24.72
2023-02-23T05:41:27.312Z,24.73
2023-02-23T05:42:27.319Z,24.73
2023-02-23T05:43:27.311Z,24.71
2023-02-23T05:44:27.281Z,24.72
2023-02-23T05:45:27.264Z,24.72
2023-02-23T05:46:27.377Z,24.72
2023-02-23T05:47:27.247Z,24.75
2023-02-23T05:48:27.245Z,24.75
2023-02-23T05:49:27.233Z,24.72
2023-02-23T05:50:27.219Z,24.71
2023-02-23T05:51:27.209Z,24.71
2023-02-23T05:52:27.203Z,24.71
2023-02-23T05:53:27.190Z,24.72
2023-02-23T05:54:27.300Z,24.72
2023-02-23T05:55:27.185Z,24.71
2023-02-23T05:56:27.168Z,24.72
2023-02-23T05:57:27.159Z,24.74
2023-02-23T05:58:27.163Z,24.73
2023-02-23T05:59:27.172Z,24.72
2023-02-23T06:00:27.130Z,24.72
2023-02-23T06:01:27.125Z,24.72
2023-02-23T06:02:27.136Z,24.71
2023-02-23T06:03:27.195Z,24.72
2023-02-23T06:04:27.101Z,24.74
2023-02-23T06:05:27.090Z,24.73
2023-02-23T06:06:27.092Z,24.72
2023-02-23T06:07:27.068Z,24.74
2023-02-23T06:08:27.061Z,24.73
2023-02-23T06:09:27.065Z,24.73
2023-02-23T06:10:27.050Z,24.74
2023-02-23T06:11:27.043Z,24.73
2023-02-23T06:12:27.029Z,24.75
2023-02-23T06:13:27.019Z,24.74
2023-02-23T06:14:27.010Z,24.74
2023-02-23T06:15:29.100Z,24.73
2023-02-23T06:16:27.147Z,24.75
2023-02-23T06:17:27.010Z,24.75
2023-02-23T06:18:26.986Z,24.74
2023-02-23T06:19:26.978Z,24.72
2023-02-23T06:20:26.971Z,24.74
2023-02-23T06:21:26.952Z,24.79
2023-02-23T06:22:26.936Z,24.87
2023-02-23T06:23:27.356Z,24.83
2023-02-23T06:24:26.923Z,24.91
2023-02-23T06:25:26.925Z,25.01
2023-02-23T06:26:26.903Z,25.02
2023-02-23T06:27:26.946Z,25.07
2023-02-23T06:28:26.886Z,25.16
2023-02-23T06:29:26.874Z,25.14
2023-02-23T06:30:26.932Z,25.19
2023-02-23T06:31:26.919Z,25.28
2023-02-23T06:32:26.938Z,25.29
2023-02-23T06:33:26.841Z,25.34
2023-02-23T06:34:26.832Z,25.39
2023-02-23T06:35:26.821Z,25.48
2023-02-23T06:36:26.819Z,25.57
2023-02-23T06:37:26.807Z,25.54
2023-02-23T06:38:26.809Z,25.62
2023-02-23T06:39:26.790Z,25.66
2023-02-23T06:40:26.784Z,25.75
2023-02-23T06:41:26.778Z,25.77
2023-02-23T06:42:26.769Z,25.84
2023-02-23T06:43:26.801Z,25.96
2023-02-23T06:44:26.749Z,26.01
2023-02-23T06:45:26.738Z,26.08
2023-02-23T06:46:26.829Z,26.18
2023-02-23T06:47:26.778Z,26.21
2023-02-23T06:48:26.808Z,26.28
2023-02-23T06:49:26.696Z,26.44
2023-02-23T06:50:26.692Z,26.53
2023-02-23T06:51:26.682Z,26.55
2023-02-23T06:52:26.696Z,26.62
2023-02-23T06:53:26.829Z,26.94
2023-02-23T06:54:26.718Z,26.85
2023-02-23T06:56:26.642Z,27.12
2023-02-23T06:57:26.662Z,27.07
2023-02-23T06:58:26.855Z,27.22
2023-02-23T07:00:29.864Z,27.59
2023-02-23T07:01:27.579Z,27.79
2023-02-23T07:03:26.930Z,28.26
2023-02-23T07:04:26.798Z,28.32
2023-02-23T07:05:34.243Z,28.60
2023-02-23T07:06:26.854Z,28.81
2023-02-23T07:07:26.815Z,28.94
2023-02-23T07:08:26.757Z,29.10
2023-02-23T07:09:27.441Z,29.18
2023-02-23T07:10:27.315Z,29.29
2023-02-23T07:11:26.895Z,29.58
2023-02-23T07:12:26.891Z,29.63
2023-02-23T07:13:27.350Z,29.77
2023-02-23T07:14:27.454Z,29.84
2023-02-23T07:15:26.842Z,30.00
2023-02-23T07:16:26.867Z,30.15
2023-02-23T07:17:26.809Z,30.22
2023-02-23T07:18:26.846Z,30.31
2023-02-23T07:19:26.796Z,30.34
2023-02-23T07:20:26.793Z,30.44
2023-02-23T07:21:26.775Z,30.48
2023-02-23T07:22:26.766Z,30.67
2023-02-23T07:23:26.884Z,30.78
2023-02-23T07:24:26.764Z,30.78
2023-02-23T07:25:26.734Z,31.04
2023-02-23T07:26:26.729Z,31.00
2023-02-23T07:27:26.716Z,31.18
2023-02-23T07:28:26.709Z,31.20
2023-02-23T07:29:26.827Z,31.47
2023-02-23T07:30:26.770Z,31.41
2023-02-23T07:31:26.797Z,31.49
2023-02-23T07:32:26.836Z,31.54
2023-02-23T07:33:26.666Z,31.65
2023-02-23T07:34:26.691Z,31.71
2023-02-23T07:35:26.645Z,31.78
2023-02-23T07:36:26.856Z,31.78
2023-02-23T07:37:26.629Z,31.86
2023-02-23T07:38:26.618Z,31.93
2023-02-23T07:39:26.611Z,32.05
2023-02-23T07:40:27.596Z,32.03
2023-02-23T07:41:26.837Z,32.17
2023-02-23T07:42:26.591Z,32.23
2023-02-23T07:43:26.847Z,32.24
2023-02-23T07:44:26.572Z,32.35
2023-02-23T07:45:26.591Z,29.91
2023-02-23T07:46:26.863Z,29.53
2023-02-23T07:48:26.573Z,27.74
2023-02-23T07:49:27.362Z,26.89
2023-02-23T07:50:26.579Z,26.64
2023-02-23T07:51:26.559Z,26.61
2023-02-23T07:52:26.544Z,26.10
2023-02-23T07:53:26.600Z,26.09
2023-02-23T07:54:26.865Z,26.44
2023-02-23T07:55:26.494Z,26.93
2023-02-23T07:56:26.490Z,27.40
2023-02-23T07:57:26.556Z,27.72
2023-02-23T07:58:26.490Z,28.19
2023-02-23T07:59:26.480Z,28.39
2023-02-23T08:00:26.460Z,28.49
2023-02-23T08:01:26.518Z,28.63
2023-02-23T08:02:27.201Z,28.82
2023-02-23T08:03:26.432Z,28.95
2023-02-23T08:04:26.446Z,29.12
2023-02-23T08:05:26.711Z,29.20
2023-02-23T08:06:26.420Z,29.35
2023-02-23T08:07:26.369Z,29.49
2023-02-23T08:08:26.382Z,29.59
2023-02-23T08:09:26.366Z,29.69
2023-02-23T08:10:26.357Z,29.86
2023-02-23T08:11:26.332Z,29.94
2023-02-23T08:12:26.415Z,30.02
2023-02-23T08:13:26.314Z,30.09
2023-02-23T08:14:26.375Z,30.27
2023-02-23T08:15:26.312Z,30.37
2023-02-23T08:16:26.325Z,30.40
2023-02-23T08:17:26.271Z,30.54
2023-02-23T08:18:26.418Z,30.63
2023-02-23T08:19:26.404Z,30.76
2023-02-23T08:20:26.327Z,30.81
2023-02-23T08:21:26.356Z,30.87
2023-02-23T08:22:26.274Z,30.96
2023-02-23T08:23:26.219Z,31.06
2023-02-23T08:24:26.230Z,31.18
2023-02-23T08:25:26.209Z,31.31
2023-02-23T08:26:26.355Z,31.34
2023-02-23T08:27:26.188Z,31.59
2023-02-23T08:28:26.174Z,31.59
2023-02-23T08:29:26.165Z,31.71
2023-02-23T08:30:26.616Z,31.81
2023-02-23T08:31:26.237Z,31.88
2023-02-23T08:32:26.216Z,31.88
2023-02-23T08:33:26.156Z,32.01
2023-02-23T08:34:26.120Z,32.14
2023-02-23T08:35:26.356Z,32.26
2023-02-23T08:36:26.104Z,32.33
2023-02-23T08:37:26.106Z,32.34
2023-02-23T08:38:26.132Z,32.35
2023-02-23T08:39:29.569Z,32.44
2023-02-23T08:40:26.065Z,32.52
2023-02-23T08:41:26.593Z,32.61
2023-02-23T08:42:26.055Z,32.47
2023-02-23T08:43:26.030Z,32.55
2023-02-23T08:44:26.022Z,32.62
2023-02-23T08:45:26.036Z,32.69
2023-02-23T08:46:27.017Z,32.62
2023-02-23T08:47:26.402Z,32.71
2023-02-23T08:48:26.009Z,32.72
2023-02-23T08:49:26.008Z,32.58
2023-02-23T08:50:27.485Z,32.27
2023-02-23T08:51:26.364Z,32.22
2023-02-23T08:52:26.116Z,32.18
2023-02-23T08:53:26.120Z,32.26
2023-02-23T08:54:26.176Z,32.36
2023-02-23T08:56:26.391Z,32.57
2023-02-23T08:57:26.101Z,32.68
2023-02-23T08:58:26.053Z,32.77
2023-02-23T08:59:26.041Z,32.83
2023-02-23T09:00:26.099Z,32.85
2023-02-23T09:01:26.402Z,32.93
2023-02-23T09:02:26.024Z,33.03
2023-02-23T09:03:26.028Z,33.08
2023-02-23T09:04:26.008Z,33.20
2023-02-23T09:05:26.072Z,33.23
2023-02-23T09:06:26.379Z,33.36
2023-02-23T09:07:26.624Z,33.31
2023-02-23T09:08:25.969Z,33.41
2023-02-23T09:09:25.954Z,33.53
2023-02-23T09:10:25.967Z,33.57
2023-02-23T09:11:25.932Z,33.64
2023-02-23T09:12:26.388Z,33.79
2023-02-23T09:13:25.924Z,33.82
2023-02-23T09:14:25.901Z,33.96
2023-02-23T09:15:25.911Z,33.95
2023-02-23T09:16:25.893Z,34.06
2023-02-23T09:17:26.366Z,34.23
2023-02-23T09:18:25.936Z,34.20
2023-02-23T09:19:25.863Z,34.28
2023-02-23T09:20:25.853Z,34.37
2023-02-23T09:21:25.851Z,34.45
2023-02-23T09:22:25.875Z,34.46
2023-02-23T09:23:25.823Z,34.61
2023-02-23T09:24:25.868Z,34.66
2023-02-23T09:25:26.297Z,34.81
2023-02-23T09:26:25.904Z,34.87
2023-02-23T09:27:25.945Z,34.85
2023-02-23T09:28:25.777Z,35.01
2023-02-23T09:29:25.772Z,35.06
2023-02-23T09:30:25.769Z,34.99
2023-02-23T09:31:25.917Z,35.12
2023-02-23T09:32:25.828Z,35.22
2023-02-23T09:33:25.958Z,35.21
2023-02-23T09:35:25.719Z,35.47
2023-02-23T09:36:25.880Z,35.50
2023-02-23T09:37:25.703Z,35.53
2023-02-23T09:38:25.884Z,35.56
2023-02-23T09:39:37.280Z,35.62
2023-02-23T09:40:25.673Z,35.09
2023-02-23T09:41:25.911Z,34.88
2023-02-23T09:42:25.680Z,34.74
2023-02-23T09:43:25.651Z,34.66
2023-02-23T09:44:25.633Z,34.59
2023-02-23T09:45:25.651Z,34.28
2023-02-23T09:46:26.019Z,33.98
2023-02-23T09:47:25.612Z,33.83
2023-02-23T09:48:25.619Z,33.82
2023-02-23T09:49:25.604Z,33.77
2023-02-23T09:50:25.591Z,33.81
2023-02-23T09:51:25.646Z,33.70
2023-02-23T09:52:25.883Z,33.67
2023-02-23T09:53:25.576Z,33.63
2023-02-23T09:54:25.557Z,33.57
2023-02-23T09:55:25.565Z,33.57
2023-02-23T09:56:25.530Z,33.52
2023-02-23T09:57:25.890Z,33.50
2023-02-23T09:58:25.547Z,33.43
2023-02-23T09:59:25.594Z,33.43
2023-02-23T10:00:25.492Z,33.34
2023-02-23T10:01:25.507Z,33.31
2023-02-23T10:02:26.000Z,33.24
2023-02-23T10:03:25.480Z,33.20
2023-02-23T10:04:25.510Z,33.16
2023-02-23T10:05:25.483Z,33.11
2023-02-23T10:06:25.446Z,33.06
2023-02-23T10:07:25.433Z,33.05
2023-02-23T10:08:25.896Z,32.97
2023-02-23T10:09:25.412Z,32.93
2023-02-23T10:10:25.455Z,32.90
2023-02-23T10:11:25.403Z,32.85
2023-02-23T10:12:25.380Z,32.78
2023-02-23T10:13:25.372Z,32.76
2023-02-23T10:14:25.395Z,32.72
2023-02-23T10:15:25.497Z,32.70
2023-02-23T10:16:25.401Z,32.65
2023-02-23T10:17:25.456Z,32.65
2023-02-23T10:18:35.927Z,32.64
2023-02-23T10:19:25.320Z,32.57
2023-02-23T10:20:25.325Z,32.55
2023-02-23T10:21:25.366Z,32.52
2023-02-23T10:22:25.328Z,32.42
2023-02-23T10:23:25.285Z,32.35
2023-02-23T10:24:25.299Z,32.36
2023-02-23T10:25:25.262Z,32.31
2023-02-23T10:26:25.286Z,32.29
2023-02-23T10:27:25.271Z,32.21
2023-02-23T10:28:25.404Z,32.16
2023-02-23T10:29:25.229Z,32.13
2023-02-23T10:30:25.396Z,32.10
2023-02-23T10:31:25.345Z,32.08
2023-02-23T10:32:25.623Z,32.03
2023-02-23T10:33:25.286Z,31.97
2023-02-23T10:34:26.541Z,31.93
2023-02-23T10:35:25.412Z,31.91
2023-02-23T10:36:25.165Z,31.86
2023-02-23T10:37:25.972Z,31.84
2023-02-23T10:38:25.371Z,31.78
2023-02-23T10:39:25.338Z,31.75
2023-02-23T10:40:25.335Z,31.72
2023-02-23T10:41:25.618Z,31.69
2023-02-23T10:42:25.416Z,31.65
2023-02-23T10:43:25.780Z,31.60
2023-02-23T10:44:25.422Z,31.57
2023-02-23T10:45:25.713Z,31.54
2023-02-23T10:46:25.186Z,31.51
2023-02-23T10:47:25.432Z,31.43
2023-02-23T10:48:28.854Z,31.45
2023-02-23T10:49:25.061Z,31.45
2023-02-23T10:50:25.270Z,31.38
2023-02-23T10:51:25.409Z,31.39
2023-02-23T10:52:25.154Z,31.34
2023-02-23T10:53:25.214Z,31.32
2023-02-23T10:54:25.170Z,31.29
2023-02-23T10:55:24.981Z,31.26
2023-02-23T10:56:25.146Z,31.25
2023-02-23T10:57:25.075Z,31.26
2023-02-23T10:58:26.740Z,31.24
2023-02-23T10:59:25.251Z,31.21
2023-02-23T11:00:25.268Z,31.21
2023-02-23T11:01:25.291Z,31.16
2023-02-23T11:02:25.702Z,31.16
2023-02-23T11:03:25.432Z,31.13
2023-02-23T11:04:25.231Z,31.12
2023-02-23T11:05:24.893Z,31.09
2023-02-23T11:06:25.398Z,31.07
2023-02-23T11:07:25.393Z,31.07
2023-02-23T11:08:25.156Z,31.02
2023-02-23T11:09:37.026Z,31.01
2023-02-23T11:10:24.943Z,30.99
2023-02-23T11:11:25.195Z,30.97
2023-02-23T11:12:25.351Z,30.95
2023-02-23T11:13:25.149Z,30.91
2023-02-23T11:14:25.344Z,30.88
2023-02-23T11:15:35.217Z,30.86
2023-02-23T11:16:25.428Z,30.85
2023-02-23T11:17:25.258Z,30.83
2023-02-23T11:18:24.796Z,30.83
2023-02-23T11:19:25.110Z,30.81
2023-02-23T11:20:24.747Z,30.77
2023-02-23T11:21:24.740Z,30.66
2023-02-23T11:22:24.927Z,30.69
2023-02-23T11:23:24.723Z,30.55
2023-02-23T11:24:24.714Z,30.55
2023-02-23T11:25:24.731Z,30.59
2023-02-23T11:26:24.716Z,30.50
2023-02-23T11:27:24.982Z,30.45
2023-02-23T11:28:24.682Z,30.45
2023-02-23T11:29:24.662Z,30.45
2023-02-23T11:30:24.814Z,30.41
2023-02-23T11:31:24.675Z,30.19
2023-02-23T11:32:25.097Z,29.47
2023-02-23T11:33:24.929Z,29.74
2023-02-23T11:34:24.667Z,29.99
2023-02-23T11:35:24.612Z,27.27
2023-02-23T11:36:24.970Z,26.82
2023-02-23T11:37:24.628Z,26.09
2023-02-23T11:38:24.621Z,25.98
2023-02-23T11:39:24.599Z,25.77
2023-02-23T11:40:24.561Z,25.68
2023-02-23T11:41:24.561Z,26.07
2023-02-23T11:42:24.553Z,27.04
2023-02-23T11:43:24.537Z,26.72
2023-02-23T11:44:24.534Z,26.32
2023-02-23T11:45:24.552Z,27.09
2023-02-23T11:46:24.775Z,27.53
2023-02-23T11:47:24.528Z,27.77
2023-02-23T11:48:24.514Z,27.66
2023-02-23T11:49:24.485Z,28.04
2023-02-23T11:50:24.507Z,28.19
2023-02-23T11:51:24.470Z,28.33
2023-02-23T11:52:24.471Z,28.53
2023-02-23T11:53:24.448Z,28.62
2023-02-23T11:54:24.441Z,28.77
2023-02-23T11:55:24.434Z,28.92
2023-02-23T11:56:24.416Z,28.97
2023-02-23T11:57:24.517Z,29.10
2023-02-23T11:58:24.404Z,29.20
2023-02-23T11:59:24.426Z,29.34
2023-02-23T12:00:24.391Z,29.44
2023-02-23T12:01:24.381Z,29.55
2023-02-23T12:02:24.368Z,29.63
2023-02-23T12:03:24.420Z,29.68
2023-02-23T12:04:24.405Z,29.84
2023-02-23T12:05:24.360Z,29.89
2023-02-23T12:06:24.432Z,30.02
2023-02-23T12:07:24.446Z,30.10
2023-02-23T12:08:24.314Z,30.32
2023-02-23T12:09:24.304Z,30.48
2023-02-23T12:10:24.349Z,30.56
2023-02-23T12:11:24.450Z,30.52
2023-02-23T12:12:24.279Z,30.57
2023-02-23T12:13:24.274Z,30.54
2023-02-23T12:14:24.263Z,30.53
2023-02-23T12:15:24.248Z,30.54
2023-02-23T12:16:24.269Z,30.68
2023-02-23T12:17:24.228Z,30.66
2023-02-23T12:18:24.503Z,30.68
2023-02-23T12:19:24.257Z,30.74
2023-02-23T12:20:24.213Z,30.79
2023-02-23T12:21:24.457Z,30.83
2023-02-23T12:22:24.416Z,30.86
2023-02-23T12:23:24.210Z,30.89
2023-02-23T12:24:24.167Z,30.95
2023-02-23T12:25:24.187Z,31.01
2023-02-23T12:26:24.497Z,31.02
2023-02-23T12:27:24.168Z,31.07
2023-02-23T12:28:24.558Z,31.09
2023-02-23T12:29:24.615Z,31.09
2023-02-23T12:30:24.223Z,31.18
2023-02-23T12:31:24.192Z,31.24
2023-02-23T12:32:24.353Z,31.24
2023-02-23T12:33:24.092Z,31.31
2023-02-23T12:34:24.090Z,31.33
2023-02-23T12:35:24.099Z,31.33
2023-02-23T12:36:24.081Z,31.36
2023-02-23T12:37:24.033Z,31.36
2023-02-23T12:38:24.096Z,31.50
2023-02-23T12:39:24.051Z,31.30
2023-02-23T12:40:24.027Z,31.30
2023-02-23T12:41:24.019Z,31.27
2023-02-23T12:42:24.022Z,31.27
2023-02-23T12:43:24.010Z,31.28
2023-02-23T12:44:24.022Z,31.35
2023-02-23T12:45:23.997Z,31.33
2023-02-23T12:46:24.328Z,31.29
2023-02-23T12:47:23.985Z,31.35
2023-02-23T12:48:23.950Z,31.41
2023-02-23T12:49:23.927Z,31.37
2023-02-23T12:50:23.932Z,31.39
2023-02-23T12:51:23.917Z,31.41
2023-02-23T12:52:23.894Z,31.44
2023-02-23T12:53:23.889Z,31.53
2023-02-23T12:54:23.907Z,31.55
2023-02-23T12:55:23.978Z,31.54
2023-02-23T12:56:24.864Z,31.62
2023-02-23T12:57:23.970Z,31.69
2023-02-23T12:58:23.842Z,31.81
2023-02-23T12:59:23.834Z,31.78
2023-02-23T13:00:23.835Z,31.93
2023-02-23T13:02:23.946Z,30.96
2023-02-23T13:03:23.908Z,30.96
2023-02-23T13:04:23.905Z,29.78
2023-02-23T13:05:23.987Z,30.08
2023-02-23T13:06:23.885Z,29.99
2023-02-23T13:07:23.885Z,30.11
2023-02-23T13:08:23.982Z,30.22
2023-02-23T13:09:23.870Z,29.83
2023-02-23T13:10:23.890Z,30.09
2023-02-23T13:11:23.853Z,30.11
2023-02-23T13:12:23.879Z,29.73
2023-02-23T13:13:23.981Z,29.62
2023-02-23T13:14:23.807Z,29.32
2023-02-23T13:15:23.846Z,29.02
2023-02-23T13:16:23.814Z,28.96
2023-02-23T13:17:23.784Z,29.05
2023-02-23T13:18:23.777Z,29.25
2023-02-23T13:19:23.770Z,29.19
2023-02-23T13:20:23.755Z,29.62
2023-02-23T13:21:23.753Z,29.81
2023-02-23T13:22:23.749Z,30.07
2023-02-23T13:23:23.729Z,30.31
2023-02-23T13:24:23.755Z,30.44
2023-02-23T13:25:23.705Z,30.63
2023-02-23T13:26:23.721Z,30.74
2023-02-23T13:27:23.701Z,30.97
2023-02-23T13:28:23.688Z,31.06
2023-02-23T13:29:23.670Z,31.15
2023-02-23T13:30:23.659Z,31.28
2023-02-23T13:31:24.031Z,31.35
2023-02-23T13:32:23.755Z,31.48
2023-02-23T13:33:25.650Z,31.55
2023-02-23T13:34:23.640Z,31.71
2023-02-23T13:35:23.627Z,31.84
2023-02-23T13:36:24.009Z,31.90
2023-02-23T13:37:23.591Z,32.09
2023-02-23T13:38:23.999Z,32.14
2023-02-23T13:39:23.584Z,32.23
2023-02-23T13:40:23.576Z,32.37
2023-02-23T13:41:23.559Z,32.48
2023-02-23T13:42:23.580Z,32.58
2023-02-23T13:43:24.013Z,32.72
2023-02-23T13:44:23.529Z,32.83
2023-02-23T13:45:23.526Z,32.86
2023-02-23T13:46:24.010Z,33.02
2023-02-23T13:47:23.519Z,33.04
2023-02-23T13:48:23.511Z,33.23
2023-02-23T13:49:23.487Z,33.23